createdAt,value
2023-02-15T00:03:58.210Z,0
2023-02-15T00:08:55.523Z,0
2023-02-15T00:13:55.906Z,0
2023-02-15T00:18:54.559Z,0
2023-02-15T00:23:54.196Z,0
2023-02-15T00:28:53.780Z,0
2023-02-15T00:33:53.429Z,0
2023-02-15T00:38:52.755Z,0
2023-02-15T00:43:53.387Z,0
2023-02-15T00:48:50.037Z,0
2023-02-15T00:53:50.370Z,0
2023-02-15T00:58:37.354Z,0
2023-02-15T01:03:37.251Z,0
2023-02-15T01:08:36.316Z,0
2023-02-15T01:13:36.508Z,0
2023-02-15T01:18:35.330Z,0
2023-02-15T01:23:35.273Z,0
2023-02-15T01:28:36.278Z,0
2023-02-15T01:33:32.746Z,0
2023-02-15T01:38:32.931Z,0
2023-02-15T01:43:31.944Z,0
2023-02-15T01:48:31.844Z,0
2023-02-15T01:53:39.554Z,0
2023-02-15T01:58:15.514Z,0
2023-02-15T02:03:15.455Z,0
2023-02-15T02:08:17.598Z,0
2023-02-15T02:13:14.891Z,0
2023-02-15T02:18:15.053Z,0
2023-02-15T02:23:14.222Z,0
2023-02-15T02:28:16.122Z,0
2023-02-15T02:33:11.448Z,0
2023-02-15T02:38:12.232Z,0
2023-02-15T02:43:11.047Z,0
2023-02-15T02:48:12.305Z,0
2023-02-15T02:53:08.296Z,0
2023-02-15T02:58:07.988Z,0
2023-02-15T02:59:40.015Z,0
2023-02-15T03:04:41.741Z,0
2023-02-15T03:09:38.207Z,0
2023-02-15T03:14:38.243Z,0
2023-02-15T03:19:39.901Z,0
2023-02-15T03:24:39.657Z,0
2023-02-15T03:29:36.340Z,0
2023-02-15T03:34:35.854Z,0
2023-02-15T03:39:24.702Z,0
2023-02-15T03:44:24.958Z,0
2023-02-15T03:49:24.091Z,0
2023-02-15T03:54:24.416Z,0
2023-02-15T03:59:14.273Z,0
2023-02-15T04:04:14.462Z,0
2023-02-15T04:09:13.808Z,0
2023-02-15T04:14:13.858Z,0
2023-02-15T04:19:13.065Z,0
2023-02-15T04:24:12.186Z,0
2023-02-15T04:29:13.101Z,0
2023-02-15T04:34:12.032Z,0
2023-02-15T04:39:13.275Z,0
2023-02-15T04:44:09.575Z,0
2023-02-15T04:49:09.677Z,0
2023-02-15T04:54:08.784Z,0
2023-02-15T04:58:54.820Z,0
2023-02-15T05:03:53.175Z,0
2023-02-15T05:08:53.100Z,0
2023-02-15T05:13:51.755Z,0
2023-02-15T05:18:51.122Z,0
2023-02-15T05:23:50.649Z,0
2023-02-15T05:28:52.072Z,0
2023-02-15T05:33:50.575Z,0
2023-02-15T05:38:50.822Z,0
2023-02-15T05:43:48.439Z,0
2023-02-15T05:48:48.286Z,0
2023-02-15T05:53:47.067Z,0
2023-02-15T05:58:46.927Z,0
2023-02-15T06:03:46.870Z,0
2023-02-15T06:08:46.105Z,0
2023-02-15T06:13:45.820Z,0
2023-02-15T06:18:45.449Z,0
2023-02-15T06:23:46.586Z,0
2023-02-15T06:28:43.946Z,0
2023-02-15T06:33:43.502Z,0
2023-02-15T06:38:43.898Z,0
2023-02-15T06:43:43.748Z,0
2023-02-15T06:48:39.856Z,0
2023-02-15T06:53:40.170Z,0
2023-02-15T06:58:39.128Z,0
2023-02-15T07:03:38.966Z,0
2023-02-15T07:08:36.797Z,0
2023-02-15T07:13:37.309Z,0.01
2023-02-15T07:18:36.327Z,0.01
2023-02-15T07:23:36.596Z,0.01
2023-02-15T07:28:34.290Z,0.01
2023-02-15T07:33:34.128Z,0.01
2023-02-15T07:38:32.997Z,0.01
2023-02-15T07:43:32.549Z,0.02
2023-02-15T07:48:32.014Z,0.02
2023-02-15T07:53:31.872Z,0.02
2023-02-15T07:58:32.015Z,0.03
2023-02-15T07:59:54.220Z,0.03
2023-02-15T08:04:55.135Z,0.03
2023-02-15T08:09:51.490Z,0.03
2023-02-15T08:14:51.570Z,0.03
2023-02-15T08:19:50.219Z,0.04
2023-02-15T08:24:55.309Z,0.04
2023-02-15T08:29:48.103Z,0.04
2023-02-15T08:34:47.951Z,0.05
2023-02-15T08:39:46.843Z,0.05
2023-02-15T08:44:51.040Z,0.06
2023-02-15T08:49:44.664Z,0.06
2023-02-15T08:54:44.582Z,0.07
2023-02-15T08:59:14.197Z,0.08
2023-02-15T09:04:14.268Z,0.09
2023-02-15T09:09:12.333Z,0.09
2023-02-15T09:14:11.488Z,0.1
2023-02-15T09:19:10.791Z,0.1
2023-02-15T09:24:10.998Z,0.1
2023-02-15T09:29:10.024Z,0.1
2023-02-15T09:34:10.157Z,0.1
2023-02-15T09:39:09.932Z,0.11
2023-02-15T09:44:09.616Z,0.12
2023-02-15T09:49:10.591Z,0.12
2023-02-15T09:54:07.119Z,0.11
2023-02-15T09:58:53.494Z,0.12
2023-02-15T10:03:53.107Z,0.12
2023-02-15T10:08:52.917Z,0.12
2023-02-15T10:13:50.513Z,0.13
2023-02-15T10:18:50.150Z,0.13
2023-02-15T10:23:50.530Z,0.13
2023-02-15T10:28:51.936Z,0.15
2023-02-15T10:33:48.219Z,0.16
2023-02-15T10:38:49.427Z,0.17
2023-02-15T10:43:47.808Z,0.18
2023-02-15T10:48:47.479Z,0.18
2023-02-15T10:53:45.051Z,0.19
2023-02-15T10:58:45.862Z,0.19
2023-02-15T11:03:44.831Z,0.2
2023-02-15T11:08:44.624Z,0.19
2023-02-15T11:13:43.812Z,0.2
2023-02-15T11:18:43.510Z,0.21
2023-02-15T11:23:43.416Z,0.22
2023-02-15T11:28:42.945Z,0.23
2023-02-15T11:33:44.529Z,0.26
2023-02-15T11:38:40.441Z,0.26
2023-02-15T11:43:41.163Z,0.26
2023-02-15T11:48:40.026Z,0.3
2023-02-15T11:53:40.546Z,0.47
2023-02-15T11:58:38.300Z,0.48
2023-02-15T11:59:59.534Z,0.44
2023-02-15T12:04:59.760Z,0.46
2023-02-15T12:10:02.068Z,0.49
2023-02-15T12:14:58.103Z,0.49
2023-02-15T12:19:58.988Z,0.48
2023-02-15T12:24:58.319Z,0.47
2023-02-15T12:29:59.513Z,0.47
2023-02-15T12:34:56.559Z,0.46
2023-02-15T12:39:56.390Z,0.45
2023-02-15T12:44:56.339Z,0.44
2023-02-15T12:49:55.976Z,0.43
2023-02-15T12:54:55.445Z,0.41
2023-02-15T12:59:02.302Z,0.41
2023-02-15T13:04:01.325Z,0.4
2023-02-15T13:09:01.760Z,0.39
2023-02-15T13:14:02.862Z,0.37
2023-02-15T13:18:58.576Z,0.37
2023-02-15T13:23:59.156Z,0.35
2023-02-15T13:28:58.134Z,0.35
2023-02-15T13:33:58.105Z,0.34
2023-02-15T13:38:56.046Z,0.32
2023-02-15T13:43:56.792Z,0.31
2023-02-15T13:48:55.873Z,0.3
2023-02-15T13:53:57.100Z,0.29
2023-02-15T13:58:54.213Z,0.28
2023-02-15T14:03:54.374Z,0.27
2023-02-15T14:08:52.742Z,0.26
2023-02-15T14:13:52.811Z,0.24
2023-02-15T14:18:50.325Z,0.23
2023-02-15T14:23:49.689Z,0.22
2023-02-15T14:29:42.229Z,0.2
2023-02-15T14:33:49.426Z,0.2
2023-02-15T14:38:48.124Z,0.18
2023-02-15T14:43:46.954Z,0.17
2023-02-15T14:48:46.959Z,0.16
2023-02-15T14:53:43.999Z,0.15
2023-02-15T14:58:44.473Z,0.14
2023-02-15T15:03:43.675Z,0.13
2023-02-15T15:08:43.536Z,0.12
2023-02-15T15:13:43.143Z,0.11
2023-02-15T15:18:42.940Z,0.1
2023-02-15T15:23:42.181Z,0.09
2023-02-15T15:28:41.741Z,0.08
2023-02-15T15:33:38.823Z,0.07
2023-02-15T15:38:38.995Z,0.07
2023-02-15T15:43:37.636Z,0.06
2023-02-15T15:48:37.853Z,0.05
2023-02-15T15:53:36.882Z,0.04
2023-02-15T15:58:36.542Z,0.04
2023-02-15T15:59:58.153Z,0.04
2023-02-15T16:04:57.541Z,0.03
2023-02-15T16:09:58.509Z,0.02
2023-02-15T16:14:54.533Z,0.02
2023-02-15T16:19:54.755Z,0.01
2023-02-15T16:24:54.195Z,0.01
2023-02-15T16:29:53.420Z,0.01
2023-02-15T16:34:50.547Z,0
2023-02-15T16:39:50.150Z,0
2023-02-15T16:44:49.440Z,0
2023-02-15T16:49:48.972Z,0
2023-02-15T16:54:48.052Z,0
2023-02-15T16:59:17.302Z,0
2023-02-15T17:04:17.277Z,0
2023-02-15T17:09:18.069Z,0
2023-02-15T17:14:14.657Z,0
2023-02-15T17:19:14.547Z,0
2023-02-15T17:24:13.897Z,0
2023-02-15T17:29:14.078Z,0
2023-02-15T17:34:10.566Z,0
2023-02-15T17:39:13.293Z,0
2023-02-15T17:44:09.348Z,0
2023-02-15T17:49:09.518Z,0
2023-02-15T17:54:08.168Z,0
2023-02-15T17:58:54.327Z,0
2023-02-15T18:03:54.587Z,0
2023-02-15T18:08:53.786Z,0
2023-02-15T18:13:54.584Z,0
2023-02-15T18:18:50.611Z,0
2023-02-15T18:23:51.413Z,0
2023-02-15T18:28:52.696Z,0
2023-02-15T18:33:51.205Z,0
2023-02-15T18:38:49.863Z,0
2023-02-15T18:43:50.192Z,0
2023-02-15T18:48:49.837Z,0
2023-02-15T18:53:50.937Z,0
2023-02-15T18:58:49.700Z,0
2023-02-15T19:03:47.505Z,0
2023-02-15T19:08:46.604Z,0
2023-02-15T19:13:46.886Z,0
2023-02-15T19:18:44.351Z,0
2023-02-15T19:23:43.963Z,0
2023-02-15T19:28:42.838Z,0
2023-02-15T19:33:42.850Z,0
2023-02-15T19:38:41.975Z,0
2023-02-15T19:43:41.203Z,0
2023-02-15T19:48:41.046Z,0
2023-02-15T19:53:41.562Z,0
2023-02-15T19:58:42.160Z,0
2023-02-15T20:03:38.032Z,0
2023-02-15T20:08:38.020Z,0
2023-02-15T20:13:38.493Z,0
2023-02-15T20:18:37.342Z,0
2023-02-15T20:23:36.730Z,0
2023-02-15T20:28:37.040Z,0
2023-02-15T20:33:37.008Z,0
2023-02-15T20:38:38.493Z,0
2023-02-15T20:43:35.160Z,0
2023-02-15T20:48:35.454Z,0
2023-02-15T20:58:34.180Z,0
2023-02-15T20:59:55.694Z,0
2023-02-15T21:04:55.565Z,0
2023-02-15T21:09:55.026Z,0
2023-02-15T21:14:54.285Z,0
2023-02-15T21:19:54.029Z,0
2023-02-15T21:24:54.126Z,0
2023-02-15T21:29:53.749Z,0
2023-02-15T21:34:53.819Z,0
2023-02-15T21:39:54.628Z,0
2023-02-15T21:44:51.796Z,0
2023-02-15T21:49:51.294Z,0
2023-02-15T21:54:50.764Z,0
2023-02-15T21:59:13.414Z,0
2023-02-15T22:04:13.909Z,0
2023-02-15T22:09:13.777Z,0
2023-02-15T22:14:13.431Z,0
2023-02-15T22:19:14.517Z,0
2023-02-15T22:29:11.351Z,0
2023-02-15T22:34:10.038Z,0
2023-02-15T22:39:10.517Z,0
2023-02-15T22:44:07.475Z,0
2023-02-15T22:49:07.676Z,0
2023-02-15T22:54:06.481Z,0
2023-02-15T22:58:53.298Z,0
2023-02-15T23:03:52.222Z,0
2023-02-15T23:08:51.640Z,0
2023-02-15T23:13:51.961Z,0
2023-02-15T23:18:51.616Z,0
2023-02-15T23:23:49.376Z,0
2023-02-15T23:28:49.243Z,0
2023-02-15T23:33:48.713Z,0
2023-02-15T23:38:47.989Z,0
2023-02-15T23:43:47.767Z,0
2023-02-15T23:48:47.215Z,0
2023-02-15T23:53:47.480Z,0
2023-02-15T23:58:47.174Z,0
